Terminal Aerodrome Forecast
Issued by NWS Pueblo, CO

Home | Current Version | Previous Version | Text Only | Print | Product List | Glossary On
Versions: 1 2 3 4 5 6 7 8 9 10 11 12 13 14 15 16 17
000
FTUS45 KPUB 180527
TAFALS
TAF
KALS 180527Z 1806/1906 20008KT P6SM FEW250
     FM181700 22020G30KT P6SM SCT200
     FM190300 21012KT P6SM SCT200=

USA.gov is the U.S. government's official web portal to all federal, state and local government web resources and services.